createdAt,value
2022-08-24T00:00:43.015Z,13.20
2022-08-24T00:03:30.785Z,13.50
2022-08-24T00:06:38.123Z,13.80
2022-08-24T00:09:24.403Z,14.60
2022-08-24T00:12:28.509Z,14.90
2022-08-24T00:15:14.421Z,15.80
2022-08-24T00:18:00.470Z,16.30
2022-08-24T00:20:45.392Z,16.70
2022-08-24T00:23:52.498Z,16.20
2022-08-24T00:26:55.906Z,15.90
2022-08-24T00:29:41.793Z,17.20
2022-08-24T00:32:24.973Z,17.50
2022-08-24T00:35:12.183Z,17.00
2022-08-24T00:37:58.418Z,16.10
2022-08-24T00:40:46.306Z,15.80
2022-08-24T00:44:04.969Z,15.90
2022-08-24T00:46:56.692Z,16.40
2022-08-24T00:49:56.851Z,17.50
2022-08-24T00:52:51.994Z,17.70
2022-08-24T00:55:50.809Z,17.00
2022-08-24T00:58:47.938Z,15.90
2022-08-24T01:01:51.621Z,17.10
2022-08-24T01:04:43.112Z,16.20
2022-08-24T01:07:48.609Z,19.30
2022-08-24T01:10:43.740Z,18.50
2022-08-24T01:13:48.118Z,17.90
2022-08-24T01:16:52.703Z,20.10
2022-08-24T01:19:44.236Z,21.40
2022-08-24T01:22:50.691Z,24.60
2022-08-24T01:25:44.789Z,23.20
2022-08-24T01:28:31.634Z,22.80
2022-08-24T01:31:19.114Z,21.10
2022-08-24T01:34:05.658Z,24.60
2022-08-24T01:37:00.366Z,21.90
2022-08-24T01:39:50.905Z,21.60
2022-08-24T01:42:35.104Z,21.80
2022-08-24T01:45:22.653Z,22.90
2022-08-24T01:48:08.315Z,22.70
2022-08-24T01:50:52.832Z,21.40
2022-08-24T01:53:40.886Z,21.50
2022-08-24T01:56:26.886Z,20.50
2022-08-24T01:59:16.728Z,20.90
2022-08-24T02:02:11.789Z,20.30
2022-08-24T02:05:01.555Z,20.70
2022-08-24T02:07:45.987Z,21.90
2022-08-24T02:10:30.392Z,20.90
2022-08-24T02:13:22.315Z,19.40
2022-08-24T02:16:07.137Z,21.00
2022-08-24T02:19:11.302Z,20.50
2022-08-24T02:21:57.768Z,20.70
2022-08-24T02:24:44.187Z,20.00
2022-08-24T02:27:30.615Z,20.10
2022-08-24T02:30:17.696Z,18.60
2022-08-24T02:33:10.332Z,18.50
2022-08-24T02:35:59.646Z,19.40
2022-08-24T02:38:52.008Z,18.60
2022-08-24T02:41:40.176Z,18.70
2022-08-24T02:44:26.892Z,19.80
2022-08-24T02:47:20.431Z,19.10
2022-08-24T02:50:12.781Z,18.80
2022-08-24T02:52:59.351Z,18.20
2022-08-24T02:56:04.703Z,18.30
2022-08-24T02:58:54.290Z,17.20
2022-08-24T03:01:39.374Z,18.20
2022-08-24T03:04:36.027Z,19.40
2022-08-24T03:07:20.259Z,17.70
2022-08-24T03:10:09.861Z,17.80
2022-08-24T03:12:58.831Z,18.00
2022-08-24T03:15:51.738Z,17.90
2022-08-24T03:18:35.415Z,18.20
2022-08-24T03:21:20.793Z,17.50
2022-08-24T03:24:05.454Z,15.80
2022-08-24T03:26:57.687Z,15.70
2022-08-24T03:30:04.712Z,16.60
2022-08-24T03:33:09.402Z,14.40
2022-08-24T03:36:05.358Z,16.00
2022-08-24T03:38:48.735Z,15.70
2022-08-24T03:41:55.075Z,17.60
2022-08-24T03:44:39.041Z,16.60
2022-08-24T03:47:33.642Z,17.40
2022-08-24T03:50:20.708Z,16.70
2022-08-24T03:53:12.671Z,16.10
2022-08-24T03:56:06.194Z,16.70
2022-08-24T03:58:52.512Z,16.70
2022-08-24T04:01:39.720Z,18.30
2022-08-24T04:04:45.058Z,17.00
2022-08-24T04:07:31.570Z,19.20
2022-08-24T04:10:15.241Z,17.80
2022-08-24T04:13:01.649Z,19.20
2022-08-24T04:15:46.433Z,18.10
2022-08-24T04:18:29.528Z,18.70
2022-08-24T04:21:23.634Z,18.40
2022-08-24T04:24:09.591Z,19.10
2022-08-24T04:26:58.943Z,17.00
2022-08-24T04:29:45.715Z,18.20
2022-08-24T04:32:29.173Z,16.90
2022-08-24T04:35:21.577Z,17.10
2022-08-24T04:38:26.329Z,17.80
2022-08-24T04:41:38.732Z,16.90
2022-08-24T04:44:31.733Z,18.90
2022-08-24T04:47:15.025Z,19.10
2022-08-24T04:50:01.461Z,18.20
2022-08-24T04:52:48.269Z,19.00
2022-08-24T04:55:53.468Z,20.60
2022-08-24T04:58:36.822Z,19.50
2022-08-24T05:01:26.526Z,21.00
2022-08-24T05:04:10.356Z,21.30
2022-08-24T05:06:54.459Z,19.20
2022-08-24T05:09:47.392Z,20.30
2022-08-24T05:12:36.059Z,20.10
2022-08-24T05:15:29.749Z,20.60
2022-08-24T05:21:11.860Z,20.20
2022-08-24T05:23:57.990Z,19.80
2022-08-24T05:26:42.545Z,20.10
2022-08-24T05:29:33.798Z,21.90
2022-08-24T05:32:17.965Z,20.00
2022-08-24T05:35:06.620Z,20.40
2022-08-24T05:37:54.130Z,20.20
2022-08-24T05:40:41.348Z,20.10
2022-08-24T05:43:24.820Z,19.70
2022-08-24T05:46:07.990Z,20.10
2022-08-24T05:48:52.927Z,20.90
2022-08-24T05:51:47.031Z,21.20
2022-08-24T05:54:40.965Z,21.30
2022-08-24T05:57:33.495Z,23.90
2022-08-24T06:00:30.911Z,23.10
2022-08-24T06:03:15.140Z,23.10
2022-08-24T06:06:04.013Z,22.10
2022-08-24T06:08:50.851Z,21.80
2022-08-24T06:11:39.237Z,21.40
2022-08-24T06:14:26.892Z,21.80
2022-08-24T06:17:14.879Z,22.60
2022-08-24T06:19:59.264Z,20.20
2022-08-24T06:22:44.324Z,21.10
2022-08-24T06:25:46.464Z,22.40
2022-08-24T06:28:33.750Z,20.90
2022-08-24T06:31:17.120Z,19.20
2022-08-24T06:34:02.615Z,19.80
2022-08-24T06:36:47.784Z,19.80
2022-08-24T06:39:32.272Z,18.60
2022-08-24T06:42:18.812Z,17.70
2022-08-24T06:45:03.251Z,17.80
2022-08-24T06:47:54.356Z,17.20
2022-08-24T06:50:38.930Z,16.30
2022-08-24T06:53:26.241Z,17.60
2022-08-24T06:56:10.736Z,16.50
2022-08-24T06:59:14.176Z,18.50
2022-08-24T07:01:59.185Z,17.20
2022-08-24T07:04:43.536Z,15.60
2022-08-24T07:07:44.892Z,15.80
2022-08-24T07:10:29.943Z,16.30
2022-08-24T07:13:14.834Z,15.90
2022-08-24T07:16:00.961Z,15.60
2022-08-24T07:18:49.338Z,14.90
2022-08-24T07:21:34.526Z,14.20
2022-08-24T07:24:22.105Z,15.10
2022-08-24T07:27:06.630Z,15.50
2022-08-24T07:30:10.261Z,14.40
2022-08-24T07:32:59.325Z,13.20
2022-08-24T07:35:42.794Z,12.20
2022-08-24T07:38:26.515Z,11.70
2022-08-24T07:44:27.634Z,11.20
2022-08-24T07:47:36.368Z,11.50
2022-08-24T07:50:15.864Z,11.10
2022-08-24T07:52:59.745Z,11.00
2022-08-24T07:55:46.035Z,10.80
2022-08-24T07:58:30.666Z,10.70
2022-08-24T08:01:13.990Z,10.00
2022-08-24T08:03:58.665Z,9.60
2022-08-24T08:06:42.994Z,8.60
2022-08-24T08:09:27.186Z,9.20
2022-08-24T08:12:10.400Z,8.30
2022-08-24T08:14:57.934Z,8.60
2022-08-24T08:17:41.089Z,8.60
2022-08-24T08:20:24.403Z,7.80
2022-08-24T08:23:27.080Z,8.30
2022-08-24T08:26:27.827Z,8.00
2022-08-24T08:29:19.523Z,8.20
2022-08-24T08:32:03.900Z,7.40
2022-08-24T08:34:47.573Z,7.20
2022-08-24T08:37:31.366Z,7.80
2022-08-24T08:40:33.089Z,8.10
2022-08-24T08:43:57.601Z,9.10
2022-08-24T08:47:07.607Z,6.60
2022-08-24T08:50:13.690Z,7.80
2022-08-24T08:53:34.379Z,7.20
2022-08-24T08:56:59.384Z,6.30
2022-08-24T08:59:48.721Z,6.50
2022-08-24T09:02:53.879Z,6.50
2022-08-24T09:05:58.044Z,7.40
2022-08-24T09:09:06.708Z,6.30
2022-08-24T09:11:59.068Z,6.60
2022-08-24T09:14:56.635Z,7.20
2022-08-24T09:17:55.117Z,6.40
2022-08-24T09:21:06.182Z,7.20
2022-08-24T09:24:20.362Z,7.30
2022-08-24T09:27:16.217Z,7.20
2022-08-24T09:30:12.283Z,6.20
2022-08-24T09:33:14.800Z,6.80
2022-08-24T09:36:20.434Z,6.60
2022-08-24T09:39:32.492Z,6.40
2022-08-24T09:42:40.155Z,5.70
2022-08-24T09:45:42.636Z,6.00
2022-08-24T09:48:39.262Z,5.30
2022-08-24T09:51:59.911Z,5.50
2022-08-24T09:55:04.917Z,5.90
2022-08-24T09:58:13.038Z,6.00
2022-08-24T10:01:24.512Z,6.70
2022-08-24T10:04:12.539Z,5.70
2022-08-24T10:06:58.155Z,7.00
2022-08-24T10:10:13.474Z,8.00
2022-08-24T10:13:10.305Z,6.90
2022-08-24T10:16:05.371Z,5.80
2022-08-24T10:19:18.350Z,6.80
2022-08-24T10:22:26.498Z,6.20
2022-08-24T10:25:30.777Z,6.40
2022-08-24T10:28:43.223Z,7.00
2022-08-24T10:31:54.851Z,5.90
2022-08-24T10:35:00.346Z,6.80
2022-08-24T10:38:26.883Z,5.90
2022-08-24T10:41:25.287Z,6.50
2022-08-24T10:44:15.103Z,6.10
2022-08-24T10:47:13.245Z,6.80
2022-08-24T10:50:08.611Z,5.30
2022-08-24T10:53:15.646Z,6.00
2022-08-24T10:56:16.142Z,5.30
2022-08-24T10:59:15.336Z,6.10
2022-08-24T11:02:13.079Z,5.40
2022-08-24T11:05:02.414Z,6.00
2022-08-24T11:08:01.165Z,6.20
2022-08-24T11:10:44.148Z,5.30
2022-08-24T11:13:27.376Z,5.50
2022-08-24T11:16:23.920Z,6.00
2022-08-24T11:19:14.780Z,6.10
2022-08-24T11:22:06.516Z,5.50
2022-08-24T11:24:54.785Z,5.30
2022-08-24T11:27:42.114Z,5.50
2022-08-24T11:30:29.578Z,5.90
2022-08-24T11:33:34.432Z,5.00
2022-08-24T11:36:23.298Z,5.90
2022-08-24T11:39:21.663Z,6.00
2022-08-24T11:42:29.172Z,6.10
2022-08-24T11:45:31.576Z,5.80
2022-08-24T11:48:29.661Z,4.70
2022-08-24T11:52:06.993Z,5.20
2022-08-24T11:55:05.399Z,6.30
2022-08-24T11:57:57.676Z,5.40
2022-08-24T12:00:51.047Z,5.80
2022-08-24T12:03:52.464Z,5.00
2022-08-24T12:06:41.819Z,5.20
2022-08-24T12:09:41.784Z,6.00
2022-08-24T12:12:52.842Z,5.20
2022-08-24T12:15:52.248Z,6.20
2022-08-24T12:18:46.357Z,6.10
2022-08-24T12:21:32.890Z,6.10
2022-08-24T12:24:24.874Z,6.10
2022-08-24T12:27:22.436Z,5.60
2022-08-24T12:30:09.821Z,5.50
2022-08-24T12:33:00.609Z,6.20
2022-08-24T12:35:49.683Z,5.70
2022-08-24T12:38:38.705Z,6.40
2022-08-24T12:41:30.203Z,6.00
2022-08-24T12:44:16.316Z,6.60
2022-08-24T12:46:59.463Z,6.20
2022-08-24T12:50:02.472Z,5.10
2022-08-24T12:53:26.427Z,5.30
2022-08-24T12:56:29.162Z,5.80
2022-08-24T12:59:23.554Z,6.10
2022-08-24T13:02:17.709Z,5.30
2022-08-24T13:05:10.804Z,6.30
2022-08-24T13:08:15.640Z,5.90
2022-08-24T13:11:08.511Z,5.90
2022-08-24T13:13:54.209Z,6.20
2022-08-24T13:16:57.418Z,5.30
2022-08-24T13:19:46.643Z,6.60
2022-08-24T13:22:47.505Z,6.00
2022-08-24T13:25:51.768Z,6.30
2022-08-24T13:28:44.277Z,5.80
2022-08-24T13:31:54.127Z,5.50
2022-08-24T13:34:44.175Z,6.30
2022-08-24T13:37:28.817Z,6.60
2022-08-24T13:40:14.788Z,5.50
2022-08-24T13:43:12.699Z,7.00
2022-08-24T13:46:13.821Z,6.00
2022-08-24T13:49:21.425Z,6.90
2022-08-24T13:52:20.756Z,5.20
2022-08-24T13:55:10.550Z,5.70
2022-08-24T13:58:12.366Z,7.30
2022-08-24T14:01:07.607Z,7.30
2022-08-24T14:04:04.549Z,6.90
2022-08-24T14:06:55.590Z,6.20
2022-08-24T14:09:57.088Z,6.50
2022-08-24T14:13:26.713Z,6.90
2022-08-24T14:16:54.210Z,6.80
2022-08-24T14:19:47.290Z,7.20
2022-08-24T14:22:49.198Z,6.30
2022-08-24T14:25:34.841Z,5.10
2022-08-24T14:28:39.449Z,6.00
2022-08-24T14:31:29.600Z,6.20
2022-08-24T14:34:41.162Z,5.30
2022-08-24T14:37:56.635Z,6.00
2022-08-24T14:41:20.716Z,5.30
2022-08-24T14:44:42.095Z,7.20
2022-08-24T14:47:42.599Z,5.70
2022-08-24T14:50:38.815Z,5.80
2022-08-24T14:53:47.514Z,5.90
2022-08-24T14:57:22.770Z,5.90
2022-08-24T15:00:21.712Z,6.10
2022-08-24T15:03:30.671Z,5.80
2022-08-24T15:06:40.927Z,6.50
2022-08-24T15:09:26.139Z,6.10
2022-08-24T15:12:46.904Z,5.50
2022-08-24T15:15:40.114Z,6.00
2022-08-24T15:18:44.571Z,6.50
2022-08-24T15:21:46.449Z,6.70
2022-08-24T15:24:52.806Z,6.10
2022-08-24T15:27:57.984Z,6.60
2022-08-24T15:30:53.531Z,6.50
2022-08-24T15:33:54.359Z,7.00
2022-08-24T15:36:37.303Z,5.40
2022-08-24T15:39:26.859Z,6.40
2022-08-24T15:42:14.830Z,7.40
2022-08-24T15:45:01.773Z,6.50
2022-08-24T15:47:51.703Z,6.30
2022-08-24T15:50:41.758Z,6.90
2022-08-24T15:53:45.209Z,6.80
2022-08-24T15:56:35.932Z,6.90
2022-08-24T15:59:41.437Z,6.90
2022-08-24T16:02:33.365Z,6.30
2022-08-24T16:05:25.930Z,6.70
2022-08-24T16:08:12.048Z,6.50
2022-08-24T16:11:19.669Z,7.50
2022-08-24T16:14:03.360Z,8.10
2022-08-24T16:16:47.024Z,7.70
2022-08-24T16:19:35.248Z,7.30
2022-08-24T16:22:32.007Z,8.00
2022-08-24T16:25:18.090Z,8.30
2022-08-24T16:28:11.511Z,8.00
2022-08-24T16:31:00.996Z,7.80
2022-08-24T16:33:50.047Z,7.50
2022-08-24T16:36:33.323Z,8.70
2022-08-24T16:39:16.293Z,7.20
2022-08-24T16:42:06.434Z,7.50
2022-08-24T16:44:50.129Z,7.90
2022-08-24T16:47:33.164Z,7.40
2022-08-24T16:50:19.716Z,8.20
2022-08-24T16:53:04.436Z,7.60
2022-08-24T16:55:48.889Z,8.20
2022-08-24T16:58:34.291Z,8.30
2022-08-24T17:01:20.158Z,7.60
2022-08-24T17:04:12.176Z,8.40
2022-08-24T17:06:55.750Z,8.10
2022-08-24T17:09:41.812Z,8.00
2022-08-24T17:12:26.981Z,8.30
2022-08-24T17:15:16.324Z,7.40
2022-08-24T17:18:06.433Z,8.60
2022-08-24T17:20:49.884Z,9.00
2022-08-24T17:23:34.735Z,8.60
2022-08-24T17:26:20.375Z,12.80
2022-08-24T17:29:06.940Z,12.30
2022-08-24T17:31:50.433Z,10.20
2022-08-24T17:34:36.971Z,8.40
2022-08-24T17:37:20.276Z,8.20
2022-08-24T17:40:14.759Z,9.50
2022-08-24T17:42:58.864Z,8.40
2022-08-24T17:45:42.629Z,8.50
2022-08-24T17:48:26.951Z,8.80
2022-08-24T17:51:10.406Z,8.80
2022-08-24T17:53:54.832Z,8.20
2022-08-24T17:56:41.219Z,8.90
2022-08-24T17:59:35.252Z,9.90
2022-08-24T18:02:18.143Z,9.50
2022-08-24T18:05:01.444Z,9.50
2022-08-24T18:07:53.696Z,10.60
2022-08-24T18:10:39.403Z,10.40
2022-08-24T18:13:22.214Z,9.40
2022-08-24T18:16:05.410Z,10.10
2022-08-24T18:18:50.537Z,9.70
2022-08-24T18:21:33.524Z,11.60
2022-08-24T18:24:17.081Z,10.10
2022-08-24T18:27:19.301Z,10.90
2022-08-24T18:30:05.254Z,10.00
2022-08-24T18:32:48.129Z,10.60
2022-08-24T18:35:31.508Z,10.20
2022-08-24T18:38:14.694Z,10.90
2022-08-24T18:41:00.833Z,10.30
2022-08-24T18:43:48.545Z,10.20
2022-08-24T18:46:32.547Z,10.20
2022-08-24T18:49:18.683Z,11.10
2022-08-24T18:52:02.894Z,11.30
2022-08-24T18:54:50.027Z,10.60
2022-08-24T18:57:33.297Z,10.50
2022-08-24T19:00:20.244Z,11.70
2022-08-24T19:03:06.768Z,11.00
2022-08-24T19:05:52.395Z,10.70
2022-08-24T19:08:36.979Z,12.30
2022-08-24T19:11:24.135Z,10.30
2022-08-24T19:14:09.945Z,11.50
2022-08-24T19:16:56.206Z,11.00
2022-08-24T19:19:49.298Z,11.50
2022-08-24T19:22:32.431Z,12.30
2022-08-24T19:25:28.338Z,11.00
2022-08-24T19:28:21.516Z,11.50
2022-08-24T19:31:10.976Z,12.00
2022-08-24T19:34:00.111Z,12.80
2022-08-24T19:36:53.118Z,12.60
2022-08-24T19:39:42.262Z,12.00
2022-08-24T19:42:27.638Z,12.80
2022-08-24T19:45:35.163Z,11.80
2022-08-24T19:48:28.181Z,12.80
2022-08-24T19:51:14.159Z,11.70
2022-08-24T19:54:17.805Z,13.50
2022-08-24T19:57:25.034Z,12.60
2022-08-24T20:00:22.698Z,12.90
2022-08-24T20:03:12.216Z,14.10
2022-08-24T20:06:00.718Z,13.30
2022-08-24T20:08:50.801Z,12.30
2022-08-24T20:11:50.328Z,12.00
2022-08-24T20:14:53.631Z,13.50
2022-08-24T20:17:38.759Z,12.70
2022-08-24T20:20:23.728Z,13.00
2022-08-24T20:23:07.353Z,13.20
2022-08-24T20:25:54.989Z,13.10
2022-08-24T20:28:43.589Z,12.00
2022-08-24T20:31:28.633Z,13.60
2022-08-24T20:34:12.658Z,13.00
2022-08-24T20:37:22.466Z,12.00
2022-08-24T20:40:26.201Z,12.80
2022-08-24T20:43:13.274Z,13.70
2022-08-24T20:46:17.150Z,13.50
2022-08-24T20:49:01.598Z,13.70
2022-08-24T20:51:56.250Z,13.40
2022-08-24T20:54:42.017Z,14.70
2022-08-24T20:57:25.278Z,13.60
2022-08-24T21:00:11.076Z,13.70
2022-08-24T21:02:54.617Z,12.00
2022-08-24T21:05:40.954Z,12.60
2022-08-24T21:08:25.873Z,13.20
2022-08-24T21:11:12.151Z,12.30
2022-08-24T21:14:15.363Z,14.90
2022-08-24T21:16:59.253Z,14.30
2022-08-24T21:19:42.478Z,13.50
2022-08-24T21:22:25.759Z,14.20
2022-08-24T21:25:10.571Z,14.60
2022-08-24T21:27:54.175Z,12.50
2022-08-24T21:30:37.497Z,12.90
2022-08-24T21:33:41.729Z,14.90
2022-08-24T21:36:25.770Z,13.10
2022-08-24T21:39:12.026Z,12.90
2022-08-24T21:41:55.486Z,13.40
2022-08-24T21:44:47.598Z,14.70
2022-08-24T21:47:34.751Z,14.40
2022-08-24T21:50:20.813Z,16.10
2022-08-24T21:53:11.441Z,15.60
2022-08-24T21:56:01.186Z,15.50
2022-08-24T21:58:46.652Z,14.90
2022-08-24T22:01:29.730Z,15.60
2022-08-24T22:04:13.551Z,17.20
2022-08-24T22:06:57.084Z,17.00
2022-08-24T22:09:41.174Z,16.60
2022-08-24T22:12:24.708Z,15.20
2022-08-24T22:15:11.600Z,16.00
2022-08-24T22:17:57.504Z,14.80
2022-08-24T22:20:40.761Z,15.80
2022-08-24T22:23:24.302Z,15.10
2022-08-24T22:26:07.501Z,14.60
2022-08-24T22:28:56.641Z,14.10
2022-08-24T22:34:32.279Z,14.00
2022-08-24T22:37:16.874Z,13.40
2022-08-24T22:40:00.478Z,12.90
2022-08-24T22:42:45.419Z,13.30
2022-08-24T22:45:28.503Z,14.30
2022-08-24T22:48:22.028Z,13.00
2022-08-24T22:51:11.795Z,12.90
2022-08-24T22:53:54.816Z,13.30
2022-08-24T22:56:43.944Z,12.60
2022-08-24T22:59:30.131Z,13.50
2022-08-24T23:02:19.632Z,13.10
2022-08-24T23:05:03.432Z,12.90
2022-08-24T23:07:49.598Z,13.40
2022-08-24T23:10:33.928Z,13.20
2022-08-24T23:13:17.171Z,12.30
2022-08-24T23:16:09.064Z,13.40
2022-08-24T23:19:11.665Z,12.20
2022-08-24T23:21:57.723Z,12.10
2022-08-24T23:24:42.188Z,12.50
2022-08-24T23:27:38.492Z,12.10
2022-08-24T23:30:31.024Z,13.00
2022-08-24T23:33:15.502Z,12.20
2022-08-24T23:35:58.809Z,11.50
2022-08-24T23:38:53.168Z,10.90
2022-08-24T23:44:24.452Z,11.30
2022-08-24T23:47:08.576Z,10.50
2022-08-24T23:49:51.638Z,10.60
2022-08-24T23:52:37.986Z,10.30
2022-08-24T23:55:25.230Z,10.40
2022-08-24T23:58:21.213Z,10.70
